Normalville, Pennsylvania
Current Conditions -  °F | °C
As of 7:50 PM on Sunday 21 Dec 2014 (Local Time) from KLBE Reporting Station
Broken Clouds Broken Clouds  
Wind Chill: 27°   Ceiling: 20000
Heat Index: 27°   Visibility: 10mi
Dew Point: 23°   Wind: 0mph
Humidity: 86%   Direction: NA
Pressure: 30.23"   Gusts: NA
Location:  40°N, 79.45°W
Report Text: KLBE 220050Z 00000KT 10SM BKN200 M03/M05 A3023
Loading
Personal Weather Stations






























Interactive Weather Map New forecast layout! Learn more

10-Day Weather Forecast

Advertisements
Track Severe Weather on mobile